Mancos, CO

3:28 PM MST on November 25, 2014 (GMT -0700)
East Canyon | Change Station
CLOSE
Current Station
Personal Weather Station
Location: Mancos, CO
Elevation: 7550 ft
Nearby Weather Stations

Elev 7550 ft 37.30 °N, 108.23 °W | Updated 18 minutes ago

Partly Cloudy
Partly Cloudy
40.6 °F
Feels Like 41 °F
N
2.0
Wind Variable Wind from North
Gusts 10.0 mph

Today
High -- | Low -- °F
--% Chance of Precip.
Yesterday
High -- | Low -- °F
Precip. -- in
7:02 AM 4:57 PM
Waxing Crescent, 14% visible
Pressure 30.38 in
Visibility 10.0 miles
Clouds Clear
Windchill 41 °F
Dew Point 6 °F
Humidity 23%
Rainfall 0.00 in
Snow Depth Not available.
UV 2 out of 12
Pollen .30 out of 12
Air Quality Not available.
Flu Activity Not available.
METAR KCEZ 252153Z AUTO 31008KT 10SM CLR 06/M14 A3033 RMK AO2 SLP285 T00611144

More Conditions Fewer Conditions

Pressure 30.38 in
Visibility 10.0 miles
Clouds Clear
Windchill 41 °F
Dew Point 6 °F
Humidity 23%
Rainfall 0.00 in
Snow Depth Not available.
UV 2 out of 12
Pollen .30 out of 12
Air Quality Not available.
Flu Activity Not available.
METAR KCEZ 252153Z AUTO 31008KT 10SM CLR 06/M14 A3033 RMK AO2 SLP285 T00611144

More Conditions Fewer Conditions

10-Day Weather Forecast

Almanac

Astronomy

Nov. 25, 2014 Rise Set
Actual Time
Civil Twilight
Nautical Twilight
Astronomical Twilight
Moon
Length of Visible Light
Length of Day
Tomorrow will be .
, % of the Moon is Illuminated

Today's Extremes

State Highs State Lows

Community

WunderPhotos

Upload Photos

1,773,608 photos uploaded!

WunderBlogs® & News

Nearby

Air Quality

  Air Quality AQ Index Pollutant
Not available.

Snow Depth

Station Depth Elevation

Earthquake Activity

City Distance Mag. Time & Date
Minimum magnitude displayed is 2.5.

Coastal Water Temperatures

Place Temperature

Nearby Weather Stations